Time;durP1;ratioP1;P1;durP2;ratioP2;P2;SDS_P1;SDS_P2;PMS_P1;PMS_P2;Temp;Humidity;BMP_temperature;BMP_pressure;BME280_temperature;BME280_humidity;BME280_pressure;Samples;Min_cycle;Max_cycle;Signal;HPM_P1;HPM_P2
2023/08/20 00:00:08;;;;;;;12.27;5.60;;;;;;;21.68;100.00;96207.22;1028153;28;20053;-76
2023/08/20 00:00:38;;;;;;;17.92;5.65;;;;;;;21.68;100.00;96210.66;1034968;28;20918;-73
2023/08/20 00:01:09;;;;;;;13.00;6.00;;;;;;;21.64;100.00;96213.22;1036240;28;20053;-74
2023/08/20 00:01:40;;;;;;;10.43;5.53;;;;;;;21.63;100.00;96208.97;1031931;28;20088;-75
2023/08/20 00:02:10;;;;;;;9.43;5.50;;;;;;;21.60;100.00;96206.16;1023865;29;20154;-75
2023/08/20 00:02:41;;;;;;;13.02;5.80;;;;;;;21.60;100.00;96214.19;1023263;28;20050;-75
2023/08/20 00:03:12;;;;;;;9.30;5.50;;;;;;;21.48;100.00;96190.03;1027560;28;20034;-76
2023/08/20 00:03:43;;;;;;;11.23;5.70;;;;;;;21.52;100.00;96205.09;1024018;28;20030;-76
2023/08/20 00:04:14;;;;;;;10.15;5.85;;;;;;;21.51;100.00;96202.75;1029733;28;20475;-73
2023/08/20 00:04:44;;;;;;;9.80;6.13;;;;;;;21.49;100.00;96203.06;1031850;28;20018;-75
2023/08/20 00:05:15;;;;;;;7.82;5.85;;;;;;;21.52;100.00;96207.75;1018729;29;20406;-75
2023/08/20 00:05:45;;;;;;;10.63;6.45;;;;;;;21.51;100.00;96205.41;1018531;29;20039;-75
2023/08/20 00:06:16;;;;;;;7.95;6.03;;;;;;;21.48;100.00;96214.06;1014672;29;20043;-76
2023/08/20 00:06:47;;;;;;;8.80;5.57;;;;;;;21.45;100.00;96210.13;1022936;28;20062;-75
2023/08/20 00:07:18;;;;;;;8.90;5.60;;;;;;;21.46;100.00;96208.25;1026530;28;20068;-74
2023/08/20 00:07:48;;;;;;;8.63;5.70;;;;;;;21.43;100.00;96201.69;1029972;28;20030;-75
2023/08/20 00:08:19;;;;;;;7.55;5.75;;;;;;;21.45;100.00;96210.13;1029056;28;20037;-74
2023/08/20 00:08:49;;;;;;;10.98;5.63;;;;;;;21.38;100.00;96199.97;1034185;28;20029;-72
2023/08/20 00:09:20;;;;;;;7.72;5.38;;;;;;;21.40;100.00;96205.78;1028750;28;20156;-74
2023/08/20 00:09:50;;;;;;;10.30;6.30;;;;;;;21.40;100.00;96205.00;1026407;28;20046;-73
2023/08/20 00:10:21;;;;;;;12.50;6.32;;;;;;;21.38;100.00;96210.63;1025866;28;20121;-73
2023/08/20 00:10:51;;;;;;;15.73;6.32;;;;;;;21.38;100.00;96207.97;1026469;28;20038;-73
2023/08/20 00:11:22;;;;;;;10.45;5.82;;;;;;;21.37;100.00;96210.97;1031525;28;20460;-73
2023/08/20 00:11:52;;;;;;;8.30;5.03;;;;;;;21.36;100.00;96209.38;1030560;28;20041;-76
2023/08/20 00:12:23;;;;;;;11.73;6.38;;;;;;;21.33;100.00;96210.81;1030593;28;20034;-74
2023/08/20 00:12:53;;;;;;;8.95;5.60;;;;;;;21.29;100.00;96206.41;1034577;28;20022;-74
2023/08/20 00:13:24;;;;;;;12.27;5.70;;;;;;;21.29;100.00;96211.75;1034309;28;20037;-73
2023/08/20 00:13:54;;;;;;;9.60;5.70;;;;;;;21.23;100.00;96207.69;1034565;28;20038;-73
2023/08/20 00:14:58;;;;;;;11.85;5.55;;;;;;;21.28;100.00;96210.97;1022519;29;20100;-73
2023/08/20 00:15:28;;;;;;;9.27;5.80;;;;;;;21.25;100.00;96210.81;1019072;29;20091;-74
2023/08/20 00:15:59;;;;;;;17.55;6.55;;;;;;;21.24;100.00;96204.69;1023611;28;20106;-75
2023/08/20 00:16:30;;;;;;;10.40;6.35;;;;;;;21.14;100.00;96199.72;1034433;28;20092;-74
2023/08/20 00:17:00;;;;;;;9.63;6.13;;;;;;;21.03;100.00;96185.16;1035424;28;20160;-73
2023/08/20 00:17:32;;;;;;;12.82;6.07;;;;;;;21.18;100.00;96216.66;1034749;28;20116;-73
2023/08/20 00:18:02;;;;;;;11.32;6.38;;;;;;;21.12;100.00;96199.22;1030550;28;20022;-72
2023/08/20 00:18:33;;;;;;;11.18;6.20;;;;;;;21.15;100.00;96210.06;1020929;29;20031;-75
2023/08/20 00:19:04;;;;;;;12.13;6.00;;;;;;;21.15;100.00;96209.28;1026533;28;20030;-73
2023/08/20 00:19:34;;;;;;;11.85;6.47;;;;;;;21.12;100.00;96212.56;1026719;28;20477;-76
2023/08/20 00:20:12;;;;;;;18.58;6.90;;;;;;;21.05;100.00;96198.94;1022398;28;20058;-72
2023/08/20 00:20:45;;;;;;;13.63;6.07;;;;;;;21.11;100.00;96208.34;1029739;28;20077;-75
2023/08/20 00:21:16;;;;;;;10.48;6.43;;;;;;;21.04;100.00;96200.06;1026671;28;20026;-74
2023/08/20 00:21:46;;;;;;;10.80;6.32;;;;;;;21.07;100.00;96210.88;1026460;28;20046;-72
2023/08/20 00:22:17;;;;;;;12.45;6.32;;;;;;;21.05;100.00;96212.28;1022653;29;20470;-75
2023/08/20 00:22:47;;;;;;;8.63;5.88;;;;;;;20.98;100.00;96206.66;1019099;29;20023;-75
2023/08/20 00:23:18;;;;;;;10.40;6.07;;;;;;;21.00;100.00;96207.91;1027749;28;20022;-73
2023/08/20 00:23:49;;;;;;;11.48;6.43;;;;;;;20.97;100.00;96205.09;1026579;28;20015;-75
2023/08/20 00:24:20;;;;;;;15.35;7.28;;;;;;;21.01;100.00;96216.69;1022687;29;20038;-74
2023/08/20 00:24:53;;;;;;;10.85;6.00;;;;;;;20.89;100.00;96196.00;1018624;29;20039;-75
2023/08/20 00:25:24;;;;;;;10.23;6.25;;;;;;;20.96;100.00;96209.66;1019812;28;20162;-73
2023/08/20 00:25:55;;;;;;;15.15;6.40;;;;;;;20.99;100.00;96213.56;1026633;28;20130;-75
2023/08/20 00:26:25;;;;;;;17.00;7.22;;;;;;;20.95;100.00;96214.19;1019180;29;20401;-76
2023/08/20 00:26:56;;;;;;;11.80;6.88;;;;;;;20.85;100.00;96198.50;1015445;29;20039;-73
2023/08/20 00:27:26;;;;;;;12.68;6.63;;;;;;;20.91;100.00;96213.25;1018704;29;20425;-74
2023/08/20 00:27:57;;;;;;;10.20;6.40;;;;;;;20.90;100.00;96214.38;1030600;28;20026;-74
2023/08/20 00:28:27;;;;;;;14.13;6.45;;;;;;;20.84;100.00;96206.84;1028283;28;20031;-75
2023/08/20 00:28:58;;;;;;;17.13;6.55;;;;;;;20.85;100.00;96209.19;1026439;28;20397;-74
2023/08/20 00:29:28;;;;;;;14.00;6.28;;;;;;;20.89;100.00;96214.66;1022676;29;20028;-74
2023/08/20 00:29:59;;;;;;;12.00;6.35;;;;;;;20.88;100.00;96213.88;1026269;28;20081;-73
2023/08/20 00:30:29;;;;;;;14.57;6.15;;;;;;;20.87;100.00;96216.88;1030065;28;20014;-76
2023/08/20 00:31:00;;;;;;;11.40;6.20;;;;;;;20.81;100.00;96216.25;1034573;28;20088;-74
2023/08/20 00:31:31;;;;;;;15.38;6.32;;;;;;;20.81;100.00;96221.59;1034709;28;20043;-73
2023/08/20 00:32:02;;;;;;;16.95;6.40;;;;;;;20.78;100.00;96218.78;1034503;28;20052;-74
2023/08/20 00:32:32;;;;;;;12.48;6.60;;;;;;;20.80;100.00;96224.59;1030590;28;20034;-73
2023/08/20 00:33:03;;;;;;;10.88;6.50;;;;;;;20.78;100.00;96216.88;1026446;28;20027;-73
2023/08/20 00:33:34;;;;;;;16.08;6.65;;;;;;;20.79;100.00;96220.34;1026433;28;20477;-75
2023/08/20 00:34:04;;;;;;;9.80;5.90;;;;;;;20.77;100.00;96223.31;1026432;28;20093;-74
2023/08/20 00:34:35;;;;;;;11.18;5.85;;;;;;;20.75;100.00;96214.84;1022616;28;20028;-75
2023/08/20 00:35:07;;;;;;;10.05;6.20;;;;;;;20.74;100.00;96217.84;1022288;29;20035;-75
2023/08/20 00:35:38;;;;;;;11.60;6.43;;;;;;;20.71;100.00;96219.25;1022761;28;20686;-73
2023/08/20 00:36:08;;;;;;;21.50;7.00;;;;;;;20.69;100.00;96216.09;1018812;29;20028;-74
2023/08/20 00:36:38;;;;;;;13.80;7.10;;;;;;;20.68;100.00;96225.22;1018664;29;20417;-74
2023/08/20 00:37:09;;;;;;;11.82;6.03;;;;;;;20.61;100.00;96215.03;1014509;29;20526;-73
2023/08/20 00:37:40;;;;;;;12.45;6.32;;;;;;;20.66;100.00;96219.44;1018690;29;20051;-73
2023/08/20 00:38:10;;;;;;;13.40;6.43;;;;;;;20.59;100.00;96216.44;1026525;28;20599;-74
2023/08/20 00:38:41;;;;;;;11.68;6.18;;;;;;;20.65;100.00;96225.84;1028282;28;20035;-74
2023/08/20 00:39:11;;;;;;;25.80;7.68;;;;;;;20.63;100.00;96228.06;1022474;29;20035;-74
2023/08/20 00:39:42;;;;;;;15.32;6.68;;;;;;;20.61;100.00;96227.56;1014542;29;20525;-73
2023/08/20 00:40:12;;;;;;;18.50;7.32;;;;;;;20.55;100.00;96226.16;1018943;28;20031;-74
2023/08/20 00:40:43;;;;;;;10.90;6.45;;;;;;;20.57;100.00;96226.66;1029746;28;20033;-75
2023/08/20 00:41:13;;;;;;;12.27;6.40;;;;;;;20.56;100.00;96227.75;1030557;28;20030;-74
2023/08/20 00:41:44;;;;;;;13.43;6.65;;;;;;;20.56;100.00;96222.41;1030476;28;20026;-75
2023/08/20 00:42:15;;;;;;;14.93;7.00;;;;;;;20.48;100.00;96213.28;1027286;28;20035;-72
2023/08/20 00:42:45;;;;;;;13.65;6.28;;;;;;;20.55;100.00;96236.81;1026204;28;20501;-75
2023/08/20 00:43:15;;;;;;;11.02;6.32;;;;;;;20.55;100.00;96231.50;1026517;28;20030;-75
2023/08/20 00:43:46;;;;;;;13.88;6.70;;;;;;;20.47;100.00;96214.38;1030279;28;20529;-75
2023/08/20 00:44:16;;;;;;;14.25;6.40;;;;;;;20.53;100.00;96231.03;1026402;28;20034;-72
2023/08/20 00:44:47;;;;;;;12.32;6.50;;;;;;;20.48;100.00;96231.94;1022417;29;20023;-75
2023/08/20 00:45:18;;;;;;;11.75;6.50;;;;;;;20.48;100.00;96232.72;1022307;28;20086;-74
2023/08/20 00:45:48;;;;;;;12.20;6.15;;;;;;;20.45;100.00;96227.22;1014556;29;20028;-74
2023/08/20 00:46:19;;;;;;;18.92;7.10;;;;;;;20.43;100.00;96230.22;1022350;29;20489;-74
2023/08/20 00:46:50;;;;;;;26.33;8.18;;;;;;;20.43;100.00;96230.22;1026385;28;20031;-73
2023/08/20 00:47:20;;;;;;;10.95;6.95;;;;;;;20.25;100.00;96207.31;1022325;28;20031;-75
2023/08/20 00:47:51;;;;;;;20.30;7.13;;;;;;;20.36;100.00;96219.25;1022410;29;20019;-74
2023/08/20 00:48:21;;;;;;;10.30;6.22;;;;;;;20.40;100.00;96227.41;1026563;28;20035;-74
2023/08/20 00:48:52;;;;;;;11.98;6.57;;;;;;;20.41;100.00;96235.06;1028122;28;20054;-73
2023/08/20 00:49:22;;;;;;;14.57;6.93;;;;;;;20.39;100.00;96233.84;1034132;28;20022;-72
2023/08/20 00:49:53;;;;;;;11.68;6.30;;;;;;;20.38;100.00;96233.03;1026370;28;20057;-73
2023/08/20 00:50:23;;;;;;;11.90;6.18;;;;;;;20.37;100.00;96231.47;1026032;28;20026;-75
2023/08/20 00:50:54;;;;;;;13.30;6.40;;;;;;;20.32;100.00;96228.97;1026271;28;20028;-73
2023/08/20 00:51:24;;;;;;;9.02;6.78;;;;;;;20.36;100.00;96245.13;1026567;28;20047;-73
2023/08/20 00:51:55;;;;;;;8.95;5.75;;;;;;;20.34;100.00;96232.09;1026281;28;20031;-75
2023/08/20 00:52:25;;;;;;;10.20;6.25;;;;;;;20.28;100.00;96228.00;1019519;29;20023;-75
2023/08/20 00:52:56;;;;;;;10.70;5.90;;;;;;;20.33;100.00;96235.84;1018588;29;20039;-75
2023/08/20 00:53:26;;;;;;;9.50;6.05;;;;;;;20.28;100.00;96233.34;1022572;29;20031;-74
2023/08/20 00:53:56;;;;;;;11.93;6.05;;;;;;;20.31;100.00;96238.03;1023851;28;20046;-74
2023/08/20 00:54:27;;;;;;;12.40;6.30;;;;;;;20.33;100.00;96240.41;1030845;28;20026;-76
2023/08/20 00:54:57;;;;;;;9.77;6.22;;;;;;;20.30;100.00;96231.16;1027106;28;20035;-73
2023/08/20 00:55:28;;;;;;;11.90;5.75;;;;;;;20.27;100.00;96225.66;1027180;28;20031;-74
2023/08/20 00:55:58;;;;;;;10.55;5.65;;;;;;;20.28;100.00;96236.00;1031217;28;20543;-74
2023/08/20 00:56:29;;;;;;;24.40;8.82;;;;;;;20.30;100.00;96239.16;1023265;29;20038;-74
2023/08/20 00:56:59;;;;;;;10.88;5.63;;;;;;;20.25;100.00;96228.63;1027219;28;20113;-76
2023/08/20 00:57:30;;;;;;;10.55;5.75;;;;;;;20.27;100.00;96231.78;1016514;29;20863;-75
2023/08/20 00:58:00;;;;;;;9.82;5.78;;;;;;;20.29;100.00;96234.94;1011554;29;20033;-74
2023/08/20 00:58:31;;;;;;;9.45;6.18;;;;;;;20.18;100.00;96218.44;1011607;29;20032;-74
2023/08/20 00:59:01;;;;;;;9.30;5.75;;;;;;;20.25;100.00;96239.28;1016874;28;20027;-74
2023/08/20 00:59:32;;;;;;;11.90;5.53;;;;;;;20.25;100.00;96244.63;1027478;28;20023;-74
2023/08/20 01:00:06;;;;;;;11.13;5.68;;;;;;;20.17;100.00;96229.41;1031259;28;20034;-73
2023/08/20 01:00:37;;;;;;;9.38;5.53;;;;;;;20.19;100.00;96241.34;1026968;28;20038;-75
2023/08/20 01:01:07;;;;;;;11.90;6.15;;;;;;;20.14;100.00;96230.03;1031974;28;20018;-73
2023/08/20 01:01:38;;;;;;;16.10;6.47;;;;;;;20.11;100.00;96228.78;1031233;28;20073;-75
2023/08/20 01:02:08;;;;;;;11.68;5.57;;;;;;;20.18;100.00;96244.28;1023856;28;20473;-74
2023/08/20 01:02:39;;;;;;;13.75;5.75;;;;;;;20.17;100.00;96245.41;1027055;28;20069;-73
2023/08/20 01:03:10;;;;;;;11.52;5.97;;;;;;;20.14;100.00;96240.69;1027350;28;20780;-73
2023/08/20 01:03:40;;;;;;;12.98;5.65;;;;;;;20.10;100.00;96237.09;1023484;28;20047;-73
2023/08/20 01:04:11;;;;;;;10.77;5.85;;;;;;;20.03;100.00;96226.88;1027062;28;20034;-75
2023/08/20 01:04:41;;;;;;;13.82;6.10;;;;;;;20.08;100.00;96247.25;1019442;29;20471;-73
2023/08/20 01:05:12;;;;;;;12.98;6.15;;;;;;;20.02;100.00;96239.44;1019291;29;20066;-75
2023/08/20 01:05:48;;;;;;;13.18;5.95;;;;;;;20.04;100.00;96241.75;1023132;28;20088;-75
2023/08/20 01:06:55;;;;;;;14.88;5.38;;;;;;;20.02;100.00;96242.09;1024017;28;20027;-75
2023/08/20 01:07:35;;;;;;;13.15;5.28;;;;;;;19.99;100.00;96236.59;1016471;29;20455;-73
2023/08/20 01:08:37;;;;;;;11.55;5.88;;;;;;;19.99;100.00;96242.72;1010254;29;20108;-75
2023/08/20 01:09:47;;;;;;;13.07;6.32;;;;;;;19.96;100.00;96243.31;1023122;28;20417;-74
2023/08/20 01:10:25;;;;;;;13.65;5.43;;;;;;;19.95;100.00;96249.75;1030884;28;20063;-75
2023/08/20 01:11:03;;;;;;;12.07;6.47;;;;;;;19.92;100.00;96234.38;1023028;29;20629;-74
2023/08/20 01:11:36;;;;;;;6.70;5.28;;;;;;;19.93;100.00;96245.81;1025646;28;20027;-73
2023/08/20 01:12:06;;;;;;;10.75;5.95;;;;;;;19.89;100.00;96239.56;1027206;28;20062;-75
2023/08/20 01:12:37;;;;;;;9.18;5.47;;;;;;;19.83;100.00;96228.25;1023251;29;20037;-75
2023/08/20 01:13:07;;;;;;;9.85;5.53;;;;;;;19.89;100.00;96243.00;1027146;28;20037;-74
2023/08/20 01:13:37;;;;;;;10.57;5.75;;;;;;;19.88;100.00;96244.06;1031267;28;20113;-73
2023/08/20 01:14:15;;;;;;;8.68;5.47;;;;;;;19.83;100.00;96244.22;1031206;28;20050;-75
2023/08/20 01:14:46;;;;;;;12.10;5.65;;;;;;;19.83;100.00;96244.22;1020095;28;20019;-73
2023/08/20 01:15:16;;;;;;;14.02;5.93;;;;;;;19.83;100.00;96241.56;1023228;29;20023;-75
2023/08/20 01:15:47;;;;;;;8.77;5.90;;;;;;;19.85;100.00;96247.38;1023319;29;20070;-75
2023/08/20 01:16:17;;;;;;;14.90;5.85;;;;;;;19.85;100.00;96247.38;1023058;29;20032;-76
2023/08/20 01:16:49;;;;;;;9.43;5.85;;;;;;;19.87;100.00;96250.50;1026832;28;20027;-73
2023/08/20 01:17:19;;;;;;;9.13;5.45;;;;;;;19.85;100.00;96250.03;1031516;28;20036;-73
2023/08/20 01:17:50;;;;;;;12.98;5.80;;;;;;;19.85;100.00;96247.38;1031661;28;20026;-72
2023/08/20 01:18:20;;;;;;;9.25;5.55;;;;;;;19.85;100.00;96254.56;1035490;28;20506;-75
2023/08/20 01:18:51;;;;;;;15.10;6.03;;;;;;;19.79;100.00;96243.28;1035176;28;20575;-76
2023/08/20 01:19:22;;;;;;;9.13;5.60;;;;;;;19.84;100.00;96245.78;1031360;28;20416;-74
2023/08/20 01:19:52;;;;;;;7.45;5.40;;;;;;;19.87;100.00;96250.50;1027202;28;20449;-75
2023/08/20 01:20:27;;;;;;;10.18;5.63;;;;;;;19.87;100.00;96255.81;1022722;29;20366;-74
2023/08/20 01:21:04;;;;;;;9.18;5.68;;;;;;;19.92;100.00;96258.38;1027126;28;20059;-75
2023/08/20 01:21:48;;;;;;;10.73;5.43;;;;;;;20.01;100.00;96261.81;1027284;28;20031;-74
2023/08/20 01:22:40;;;;;;;11.73;5.53;;;;;;;19.99;100.00;96258.69;1027119;28;20037;-73
2023/08/20 01:23:21;;;;;;;10.48;5.63;;;;;;;20.01;100.00;96253.81;1027930;28;20483;-75
2023/08/20 01:24:30;;;;;;;11.60;5.40;;;;;;;20.07;100.00;96254.47;1031518;28;20022;-74
2023/08/20 01:25:28;;;;;;;11.60;5.60;;;;;;;20.08;100.00;96247.25;1034689;28;20496;-74
2023/08/20 01:26:14;;;;;;;8.77;5.65;;;;;;;20.06;100.00;96247.59;1028239;28;20528;-74
2023/08/20 01:26:49;;;;;;;8.43;5.10;;;;;;;20.08;100.00;96252.59;1039330;28;20754;-73
2023/08/20 01:27:28;;;;;;;11.52;5.03;;;;;;;20.04;100.00;96255.09;1031017;28;20533;-73
2023/08/20 01:28:24;;;;;;;8.60;5.57;;;;;;;20.06;100.00;96254.78;1027097;28;20566;-75
2023/08/20 01:28:54;;;;;;;9.25;5.20;;;;;;;20.04;100.00;96252.44;1024066;28;20022;-72
2023/08/20 01:29:25;;;;;;;7.68;5.15;;;;;;;19.99;100.00;96250.69;1027371;28;20058;-75
2023/08/20 01:29:56;;;;;;;10.02;5.47;;;;;;;20.01;100.00;96247.72;1030546;28;20492;-73
2023/08/20 01:30:26;;;;;;;7.05;5.50;;;;;;;19.99;100.00;96252.59;1026400;28;20587;-73
2023/08/20 01:30:58;;;;;;;7.22;5.43;;;;;;;19.94;100.00;96255.38;1027058;28;20109;-74
2023/08/20 01:31:29;;;;;;;14.43;6.45;;;;;;;19.93;100.00;96251.16;1031075;28;20510;-75
2023/08/20 01:31:59;;;;;;;9.95;6.05;;;;;;;19.93;100.00;96254.59;1028346;28;20034;-73
2023/08/20 01:32:30;;;;;;;11.90;6.40;;;;;;;19.91;100.00;96262.09;1023213;29;20031;-73
2023/08/20 01:33:00;;;;;;;10.13;5.82;;;;;;;19.90;100.00;96263.22;1023301;28;20031;-74
2023/08/20 01:33:31;;;;;;;11.32;5.95;;;;;;;19.87;100.00;96261.16;1024356;28;20042;-74
2023/08/20 01:34:01;;;;;;;14.02;6.88;;;;;;;19.88;100.00;96264.59;1027121;28;20085;-74
2023/08/20 01:34:32;;;;;;;10.57;6.43;;;;;;;19.85;100.00;96262.56;1027185;28;20043;-74
2023/08/20 01:35:03;;;;;;;13.13;7.28;;;;;;;19.84;100.00;96263.66;1027167;28;20026;-74
2023/08/20 01:35:33;;;;;;;18.90;7.18;;;;;;;19.83;100.00;96264.75;1023161;28;20031;-75
2023/08/20 01:36:09;;;;;;;13.73;7.22;;;;;;;19.72;100.00;96256.28;1023415;28;20772;-74
2023/08/20 01:36:40;;;;;;;10.73;7.20;;;;;;;19.80;100.00;96266.16;1023193;29;20034;-72
2023/08/20 01:37:10;;;;;;;12.35;6.82;;;;;;;19.80;100.00;96265.38;1027102;28;20520;-75
2023/08/20 01:37:40;;;;;;;15.68;7.30;;;;;;;19.71;100.00;96257.34;1027101;28;20095;-75
2023/08/20 01:38:11;;;;;;;14.48;6.68;;;;;;;19.79;100.00;96272.59;1031254;28;20037;-74
2023/08/20 01:38:41;;;;;;;9.35;6.68;;;;;;;19.75;100.00;96269.75;1024991;28;20049;-74
2023/08/20 01:39:13;;;;;;;14.95;6.47;;;;;;;19.74;100.00;96275.38;1031217;28;20832;-74
2023/08/20 01:39:43;;;;;;;10.40;7.13;;;;;;;19.72;100.00;96266.91;1026989;28;20038;-75
2023/08/20 01:40:14;;;;;;;12.73;6.25;;;;;;;19.70;100.00;96271.75;1027162;28;20027;-73
2023/08/20 01:40:44;;;;;;;10.55;6.75;;;;;;;19.67;100.00;96267.81;1022585;29;20027;-74
2023/08/20 01:41:15;;;;;;;10.07;6.57;;;;;;;19.66;100.00;96270.81;1023283;29;20031;-74
2023/08/20 01:41:46;;;;;;;13.80;7.05;;;;;;;19.66;100.00;96273.47;1023184;28;20042;-76
2023/08/20 01:42:16;;;;;;;14.38;7.28;;;;;;;19.66;100.00;96270.81;1026571;28;20022;-73
2023/08/20 01:42:47;;;;;;;14.48;7.03;;;;;;;19.66;100.00;96276.91;1027095;28;20023;-74
2023/08/20 01:43:17;;;;;;;10.13;7.05;;;;;;;19.62;100.00;96270.59;1027050;28;20086;-73
2023/08/20 01:43:47;;;;;;;15.27;7.53;;;;;;;19.65;100.00;96274.53;1028973;28;20440;-72
2023/08/20 01:44:18;;;;;;;12.55;7.05;;;;;;;19.64;100.00;96272.97;1035016;28;20077;-73
2023/08/20 01:44:48;;;;;;;11.18;7.30;;;;;;;19.65;100.00;96275.34;1035239;28;20034;-73
2023/08/20 01:45:19;;;;;;;11.30;7.07;;;;;;;19.59;100.00;96267.78;1035029;28;20033;-74
2023/08/20 01:45:49;;;;;;;12.98;7.60;;;;;;;19.65;100.00;96274.53;1031234;28;20027;-73
2023/08/20 01:46:20;;;;;;;14.55;6.93;;;;;;;19.63;100.00;96274.06;1031213;28;20784;-74
2023/08/20 01:46:50;;;;;;;12.80;7.20;;;;;;;19.52;100.00;96260.22;1035325;28;20033;-75
2023/08/20 01:47:21;;;;;;;11.77;7.60;;;;;;;19.60;100.00;96275.44;1028017;28;20029;-75
2023/08/20 01:47:51;;;;;;;9.75;7.30;;;;;;;19.58;100.00;96268.84;1027317;28;20677;-74
2023/08/20 01:48:22;;;;;;;13.52;7.63;;;;;;;19.58;100.00;96274.16;1031083;28;20022;-75
2023/08/20 01:48:52;;;;;;;12.35;7.97;;;;;;;19.50;100.00;96265.84;1032843;28;20034;-73
2023/08/20 01:49:23;;;;;;;10.93;7.30;;;;;;;19.57;100.00;96280.59;1035238;28;20025;-74
2023/08/20 01:49:53;;;;;;;11.18;7.00;;;;;;;19.46;100.00;96267.56;1035169;28;20033;-75
2023/08/20 01:50:23;;;;;;;15.80;8.57;;;;;;;19.53;100.00;96283.09;1034499;28;20099;-76
2023/08/20 01:50:54;;;;;;;14.45;8.38;;;;;;;19.44;100.00;96264.41;1031130;28;20030;-75
2023/08/20 01:51:24;;;;;;;12.02;7.40;;;;;;;19.51;100.00;96280.72;1027051;28;20034;-74
2023/08/20 01:51:55;;;;;;;14.45;6.93;;;;;;;19.50;100.00;96281.03;1027114;28;20030;-74
2023/08/20 01:52:25;;;;;;;14.27;6.97;;;;;;;19.48;100.00;96281.34;1029874;28;20026;-74
2023/08/20 01:52:56;;;;;;;11.35;7.10;;;;;;;19.42;100.00;96265.81;1031215;28;20125;-74
2023/08/20 01:53:26;;;;;;;12.35;7.20;;;;;;;19.50;100.00;96275.72;1031035;28;20034;-74
2023/08/20 01:53:57;;;;;;;14.77;7.15;;;;;;;19.49;100.00;96282.91;1030973;28;20710;-73
2023/08/20 01:54:28;;;;;;;13.18;7.63;;;;;;;19.48;100.00;96276.03;1031137;28;20026;-73
2023/08/20 01:54:59;;;;;;;13.27;7.38;;;;;;;19.48;100.00;96281.34;1035276;28;20580;-74
2023/08/20 01:55:29;;;;;;;11.98;7.47;;;;;;;19.38;100.00;96270.16;1030925;28;20045;-74
2023/08/20 01:56:00;;;;;;;13.85;7.15;;;;;;;19.45;100.00;96281.97;1031113;28;20019;-75
2023/08/20 01:56:30;;;;;;;16.98;8.27;;;;;;;19.37;100.00;96269.38;1030972;28;20041;-73
2023/08/20 01:57:01;;;;;;;14.23;7.20;;;;;;;19.41;100.00;96283.66;1031109;28;20018;-74
2023/08/20 01:57:31;;;;;;;9.18;7.30;;;;;;;19.42;100.00;96285.22;1032108;28;20034;-74
2023/08/20 01:58:02;;;;;;;14.63;7.90;;;;;;;19.41;100.00;96282.84;1031215;28;20113;-74
2023/08/20 01:58:33;;;;;;;14.38;8.00;;;;;;;19.41;100.00;96291.63;1026917;28;20023;-73
2023/08/20 01:59:03;;;;;;;15.27;7.63;;;;;;;19.24;100.00;96267.59;1022983;28;20035;-74
2023/08/20 01:59:34;;;;;;;13.00;7.20;;;;;;;19.29;100.00;96280.78;1023385;28;20059;-75
2023/08/20 02:00:05;;;;;;;16.20;7.70;;;;;;;19.35;100.00;96292.88;1031203;28;20022;-75
2023/08/20 02:00:36;;;;;;;15.90;8.25;;;;;;;19.36;100.00;96288.34;1030286;28;20034;-74
2023/08/20 02:01:06;;;;;;;14.63;7.85;;;;;;;19.35;100.00;96287.56;1031110;28;20031;-74
2023/08/20 02:01:37;;;;;;;15.82;7.78;;;;;;;19.27;100.00;96281.06;1031049;28;20026;-73
2023/08/20 02:02:07;;;;;;;15.30;8.00;;;;;;;19.34;100.00;96291.28;1027055;28;20393;-73
2023/08/20 02:02:37;;;;;;;13.57;7.85;;;;;;;19.28;100.00;96281.84;1022821;28;20019;-72
2023/08/20 02:03:08;;;;;;;13.32;7.60;;;;;;;19.33;100.00;96289.72;1023101;29;20023;-74
2023/08/20 02:03:38;;;;;;;16.27;7.65;;;;;;;19.30;100.00;96287.66;1023069;29;20034;-74
2023/08/20 02:04:09;;;;;;;12.10;7.43;;;;;;;19.30;100.00;96285.78;1020334;28;20083;-74
2023/08/20 02:04:39;;;;;;;11.85;7.50;;;;;;;19.30;100.00;96291.09;1022886;29;20085;-74
2023/08/20 02:05:12;;;;;;;11.07;7.15;;;;;;;19.29;100.00;96294.09;1023021;28;20024;-73
2023/08/20 02:05:43;;;;;;;12.77;7.57;;;;;;;19.29;100.00;96291.44;1022870;28;20027;-74
2023/08/20 02:06:13;;;;;;;11.13;8.00;;;;;;;19.28;100.00;96297.81;1027246;28;20026;-74
2023/08/20 02:06:44;;;;;;;12.43;8.30;;;;;;;19.21;100.00;96278.84;1031682;28;20463;-74
2023/08/20 02:07:14;;;;;;;15.60;8.07;;;;;;;19.27;100.00;96290.94;1027302;28;20436;-73
2023/08/20 02:07:44;;;;;;;12.43;8.27;;;;;;;19.18;100.00;96284.75;1030326;28;20082;-75
2023/08/20 02:08:15;;;;;;;10.95;7.07;;;;;;;19.25;100.00;96299.22;1029754;28;20041;-74
2023/08/20 02:08:45;;;;;;;9.68;7.53;;;;;;;19.25;100.00;96293.13;1026860;28;20733;-74
2023/08/20 02:09:17;;;;;;;11.35;7.50;;;;;;;19.26;100.00;96300.00;1024724;28;20027;-74
2023/08/20 02:09:47;;;;;;;12.30;7.70;;;;;;;19.25;100.00;96304.56;1023173;28;20075;-73
2023/08/20 02:10:18;;;;;;;13.43;7.18;;;;;;;19.19;100.00;96291.69;1023465;28;20035;-74
2023/08/20 02:10:48;;;;;;;14.00;7.50;;;;;;;19.22;100.00;96293.72;1030790;28;20508;-74
2023/08/20 02:11:18;;;;;;;23.90;9.23;;;;;;;19.26;100.00;96300.00;1034268;28;20089;-75
2023/08/20 02:11:49;;;;;;;31.67;9.07;;;;;;;19.25;100.00;96301.88;1026974;28;20033;-75
2023/08/20 02:12:19;;;;;;;35.58;8.68;;;;;;;19.20;100.00;96287.91;1031045;28;20122;-74
2023/08/20 02:12:50;;;;;;;18.30;8.25;;;;;;;19.26;100.00;96300.00;1027095;28;20073;-74
2023/08/20 02:13:20;;;;;;;14.90;7.43;;;;;;;19.21;100.00;96303.56;1022879;28;20019;-75
2023/08/20 02:13:51;;;;;;;11.18;7.50;;;;;;;19.21;100.00;96298.25;1023035;29;20793;-73
2023/08/20 02:14:21;;;;;;;20.75;7.78;;;;;;;19.19;100.00;96300.44;1027114;28;20034;-74
2023/08/20 02:14:52;;;;;;;12.95;7.57;;;;;;;19.17;100.00;96301.81;1020769;28;20050;-74
2023/08/20 02:15:22;;;;;;;12.18;7.45;;;;;;;19.16;100.00;96294.94;1023036;29;20038;-73
2023/08/20 02:16:02;;;;;;;13.57;8.30;;;;;;;19.08;100.00;96296.47;1023166;28;20035;-75
2023/08/20 02:16:33;;;;;;;12.98;6.82;;;;;;;19.15;100.00;96301.34;1032371;28;20029;-73
2023/08/20 02:17:03;;;;;;;14.70;8.65;;;;;;;19.16;100.00;96308.25;1035283;28;20026;-75
2023/08/20 02:17:35;;;;;;;15.95;8.05;;;;;;;19.16;100.00;96306.38;1036483;28;20652;-73
2023/08/20 02:18:06;;;;;;;16.25;7.35;;;;;;;19.15;100.00;96304.00;1038674;28;20574;-73
2023/08/20 02:18:37;;;;;;;14.25;7.80;;;;;;;19.12;100.00;96304.63;1033444;28;20125;-74
2023/08/20 02:19:07;;;;;;;16.58;8.07;;;;;;;19.13;100.00;96306.19;1035049;28;20084;-74
2023/08/20 02:19:38;;;;;;;13.55;7.82;;;;;;;19.11;100.00;96308.34;1031105;28;20476;-74
2023/08/20 02:20:12;;;;;;;10.85;7.57;;;;;;;19.09;100.00;96306.00;1026901;28;20054;-72
2023/08/20 02:20:43;;;;;;;12.43;7.47;;;;;;;19.04;100.00;96308.78;1022327;28;20071;-74
2023/08/20 02:21:13;;;;;;;13.73;7.68;;;;;;;19.11;100.00;96303.03;1023755;28;20046;-74
2023/08/20 02:21:44;;;;;;;14.07;7.60;;;;;;;19.11;100.00;96308.34;1024001;28;20656;-74
2023/08/20 02:22:14;;;;;;;13.25;8.05;;;;;;;19.12;100.00;96304.63;1031002;28;20045;-73
2023/08/20 02:22:45;;;;;;;8.80;7.72;;;;;;;19.09;100.00;96311.31;1031303;28;20030;-73
2023/08/20 02:23:15;;;;;;;12.90;7.68;;;;;;;19.05;100.00;96302.38;1023320;29;20031;-73
2023/08/20 02:23:45;;;;;;;12.70;7.55;;;;;;;19.07;100.00;96303.63;1027112;28;20477;-74
2023/08/20 02:24:16;;;;;;;10.27;7.60;;;;;;;19.06;100.00;96307.41;1025556;28;20035;-74
2023/08/20 02:24:46;;;;;;;13.38;7.65;;;;;;;19.07;100.00;96306.28;1023477;29;20035;-73
2023/08/20 02:25:17;;;;;;;12.63;7.75;;;;;;;19.06;100.00;96302.06;1023380;29;20110;-74
2023/08/20 02:25:47;;;;;;;14.50;7.50;;;;;;;19.02;100.00;96306.44;1015557;29;20028;-74
2023/08/20 02:26:18;;;;;;;11.05;7.18;;;;;;;19.03;100.00;96305.34;1019174;29;20474;-74
2023/08/20 02:26:48;;;;;;;9.20;7.40;;;;;;;18.94;100.00;96299.16;1019180;29;20031;-74
2023/08/20 02:27:19;;;;;;;14.63;7.68;;;;;;;19.00;100.00;96308.59;1023293;29;20400;-75